Flight Track Log - Related Links

Times and Time Zones

All times are in EDT time to prevent confusion due to time zone crossing. See the N500CD flight status page for this flight to view local times or setup timezone preferences in your user account.

Time Position Orientation Groundspeed Altitude Reporting Facility
EDT Latitude Longitude Course Direction KTS MPH feet Rate Location/Type
Tue 05:55:05 AM 30.6650 -83.2042 151° Southeast 181 208 6,000  Level Jacksonville Center
Tue 05:55:39 AM 30.6442 -83.1822 138° Southeast 266 306 7,300 2,164 Climbing Jacksonville Center
Tue 05:56:06 AM 30.6211 -83.1725 160° South 183 211 8,200 1,900 Climbing Jacksonville Center
Tue 05:56:39 AM 30.6003 -83.1533 142° Southeast 216 249 9,200 1,800 Climbing Jacksonville Center
Tue 05:57:06 AM 30.5775 -83.1386 151° Southeast 188 216 10,000 1,900 Climbing Jacksonville Center
Tue 05:57:39 AM 30.5522 -83.1194 147° Southeast 197 227 11,100 2,066 Climbing Jacksonville Center
Tue 05:58:07 AM 30.5253 -83.1144 171° South 201 231 12,100 1,900 Climbing Jacksonville Center
Tue 05:58:39 AM 30.5022 -83.0975 148° Southeast 191 220 13,000 1,672 Climbing Jacksonville Center
Tue 05:59:00 AM 30.4644 -83.0440 147° Southeast  Level Estimated
Tue 05:59:08 AM 30.4753 -83.0903 167° South 197 227 13,800  Level Jacksonville Center
Tue 05:59:39 AM 30.4500 -83.0733 150° Southeast 191 220 14,600 1,500 Climbing Jacksonville Center
Tue 06:00:08 AM 30.4208 -83.0636 164° South 203 234 15,300 1,500 Climbing Jacksonville Center
Tue 06:00:39 AM 30.3958 -83.0492 154° Southeast 202 232 16,100 1,574 Climbing Jacksonville Center
Tue 06:01:09 AM 30.3625 -83.0369 162° South 219 252 16,900 1,600 Climbing Jacksonville Center
Tue 06:01:39 AM 30.3394 -83.0225 152° Southeast 212 244 17,700 1,279 Climbing Jacksonville Center
Tue 06:02:10 AM 30.3083 -83.0106 162° South 222 255 18,200 1,200 Climbing Jacksonville Center
Tue 06:02:39 AM 30.2831 -82.9961 154° Southeast 212 244 18,900 1,600 Climbing Jacksonville Center
Tue 06:03:10 AM 30.2478 -82.9817 161° South 220 253 19,800 1,500 Climbing Jacksonville Center
Tue 06:03:39 AM 30.2269 -82.9694 153° Southeast 218 251 20,400 1,180 Climbing Jacksonville Center
Tue 06:04:11 AM 30.1956 -82.9600 165° South 220 253 21,000 1,200 Climbing Jacksonville Center
Tue 06:04:39 AM 30.1706 -82.9406 146° Southeast 218 251 21,600 1,400 Climbing Jacksonville Center
Tue 06:05:11 AM 30.1350 -82.9286 164° South 223 257 22,400 1,300 Climbing Jacksonville Center
Tue 06:05:39 AM 30.1119 -82.9142 152° Southeast 223 257 22,900 1,082 Climbing Jacksonville Center
Tue 06:06:12 AM 30.0764 -82.9044 167° South 227 261 23,500 1,100 Climbing Jacksonville Center
Tue 06:06:39 AM 30.0514 -82.8853 146° Southeast 228 262 24,000 1,034 Climbing Jacksonville Center
Tue 06:07:39 AM 29.9931 -82.8614 160° South 242 278 25,000 1,100 Climbing Jacksonville Center
Tue 06:08:39 AM 29.9261 -82.8328 160° South 248 285 26,200 1,200 Climbing Jacksonville Center
Tue 06:09:39 AM 29.8594 -82.8017 158° South 254 292 27,400 1,150 Climbing Jacksonville Center
Tue 06:10:39 AM 29.7925 -82.7706 158° South 254 292 28,500 1,100 Climbing Jacksonville Center
Tue 06:11:39 AM 29.7278 -82.7419 159° South 248 285 29,600 1,100 Climbing Jacksonville Center
Tue 06:12:39 AM 29.6589 -82.7086 157° South 254 292 30,700 700 Climbing Jacksonville Center
Tue 06:13:39 AM 29.5858 -82.6728 157° South 265 305 31,000 150 Climbing Jacksonville Center
Tue 06:14:39 AM 29.5022 -82.6347 158° South 294 338 31,000  Level Jacksonville Center
Tue 06:15:39 AM 29.4164 -82.5947 158° South 323 372 31,000  Level Jacksonville Center
Tue 06:16:39 AM 29.3267 -82.5544 159° South 339 390 31,000  Level Jacksonville Center
Tue 06:17:39 AM 29.2389 -82.5117 157° South 344 396 31,000  Level Jacksonville Center
Tue 06:18:39 AM 29.1469 -82.4694 158° South 349 402 31,000  Level Jacksonville Center
Tue 06:20:10 AM 28.9956 -82.4533 175° South 349 402 31,000  Level Miami Center
Tue 06:21:11 AM 28.8956 -82.4597 183° South 351 404 31,000  Level Miami Center
Tue 06:22:11 AM 28.7964 -82.4653 183° South 356 410 31,000  Level Miami Center
Tue 06:23:12 AM 28.6969 -82.4708 183° South 356 410 31,000  Level Miami Center
Tue 06:24:12 AM 28.5978 -82.4764 183° South 357 411 31,000  Level Miami Center
Tue 06:25:13 AM 28.4881 -82.4822 183° South 357 411 31,000  Level Miami Center
Tue 06:26:13 AM 28.3889 -82.4883 183° South 357 411 31,000  Level Miami Center
Tue 06:27:14 AM 28.2939 -82.4933 183° South 357 411 31,000  Level Miami Center
Tue 06:28:15 AM 28.1950 -82.4992 183° South 357 411 31,000  Level Miami Center
Tue 06:29:15 AM 28.0944 -82.5056 183° South 359 413 31,000  Level Miami Center
Tue 06:30:16 AM 27.9942 -82.5111 183° South 360 414 31,000  Level Miami Center
Tue 06:31:16 AM 27.8967 -82.4914 170° South 360 414 31,000  Level Miami Center
Tue 06:32:17 AM 27.8008 -82.4558 162° South 361 415 31,000  Level Miami Center
Tue 06:33:18 AM 27.6925 -82.4156 162° South 362 417 31,000  Level Miami Center
Tue 06:34:18 AM 27.6000 -82.3817 162° South 361 415 31,000  Level Miami Center
Tue 06:35:19 AM 27.5003 -82.3447 162° South 360 414 31,000  Level Miami Center
Tue 06:36:19 AM 27.4008 -82.3078 162° South 360 414 31,000 -397 Level Miami Center
Tue 06:37:20 AM 27.3083 -82.2750 163° South 360 414 30,200 -934 Descending Miami Center
Tue 06:38:21 AM 27.2047 -82.2364 162° South 370 426 29,100 -1,041 Descending Miami Center
Tue 06:39:21 AM 27.1072 -82.2003 162° South 374 430 28,100 -1,041 Descending Miami Center
Tue 06:40:22 AM 27.0014 -82.1636 163° South 378 435 27,000 -1,131 Descending Miami Center
Tue 06:41:23 AM 26.9161 -82.1067 149° Southeast 372 428 25,800 -1,091 Descending Miami Center
Tue 06:42:23 AM 26.8525 -82.0156 128° Southeast 374 430 24,800 -1,091 Descending Miami Center
Tue 06:43:24 AM 26.7903 -81.9258 128° Southeast 368 423 23,600 -1,082 Descending Miami Center
Tue 06:44:25 AM 26.7272 -81.8358 128° Southeast 368 423 22,600 -1,041 Descending Miami Center
Tue 06:45:25 AM 26.6631 -81.7444 128° Southeast 375 432 21,500 -1,091 Descending Miami Center
Tue 06:46:26 AM 26.5983 -81.6556 129° Southeast 372 428 20,400 -1,140 Descending Miami Center
Tue 06:47:26 AM 26.5267 -81.5547 128° Southeast 372 428 19,200 -744 Descending Miami Center
Tue 06:48:27 AM 26.4722 -81.4783 129° Southeast 360 414 18,900 -738 Descending Miami Center
Tue 06:49:28 AM 26.4022 -81.3797 128° Southeast 355 409 17,700 -1,388 Descending Miami Center
Tue 06:50:28 AM 26.3400 -81.2953 129° Southeast 354 407 16,100 -1,835 Descending Miami Center
Tue 06:51:29 AM 26.2853 -81.2178 128° Southeast 314 361 14,000 -2,041 Descending Miami Center
Tue 06:52:05 AM 26.2489 -81.1689 130° Southeast 306 352 12,800 -1,869 Descending Miami Center
Tue 06:52:30 AM 26.2314 -81.1436 128° Southeast 311 358 12,100 -1,959 Descending Miami Center
Tue 06:52:54 AM 26.2047 -81.1092 131° Southeast 313 360 11,200 -2,000 Descending Miami Center
Tue 06:53:30 AM 26.1747 -81.0647 127° Southeast 303 349 10,100 -1,889 Descending Miami Center
Tue 06:53:48 AM 26.1589 -81.0450 132° Southeast 289 333 9,500 -1,574 Descending Miami Center
Tue 06:54:31 AM 26.1347 -81.0097 127° Southeast 289 333 8,500 -1,672 Descending Miami Center
Tue 06:54:49 AM 26.1114 -80.9739 126° Southeast 277 319 7,800 -1,574 Descending Miami Center
Tue 06:55:32 AM 26.1042 -80.9167 98° East 272 313 6,900 -1,082 Descending Miami Center
Tue 06:55:50 AM 26.1083 -80.8947 78° East 264 304 6,700 -885 Descending Miami Center
Tue 06:56:33 AM 26.1233 -80.8367 74° East 269 310 6,000 -689 Descending Miami Center
Tue 06:56:51 AM 26.1283 -80.8150 76° East 271 312 6,000 -456 Level Miami Center
Tue 06:57:52 AM 26.1508 -80.7286 74° East 274 315 5,400 -757 Descending Miami Center
Tue 06:58:34 AM 26.1742 -80.6797 62° Northeast 270 311 4,700 -1,000 Descending Miami Center
Tue 06:58:52 AM 26.1850 -80.6547 64° Northeast 267 307 4,400 -689 Descending Miami Center
Tue 06:59:35 AM 26.2083 -80.6064 62° Northeast 268 308 4,000 -358 Descending Miami Center
Tue 06:59:59 AM 26.2239 -80.5744 62° Northeast 268 308 4,000  Level Miami Center
Tue 07:00:35 AM 26.2439 -80.5303 63° Northeast 273 314 4,000  Level Miami Center
Tue 07:00:54 AM 26.2578 -80.5028 61° Northeast 283 326 4,000 -590 Level Miami Center
Tue 07:01:36 AM 26.2817 -80.4519 62° Northeast 273 314 3,400 -740 Descending Miami Center
Tue 07:02:07 AM 26.2989 -80.4175 61° Northeast 251 289 3,100 -393 Descending Miami Center
Tue 07:02:37 AM 26.3139 -80.3833 64° Northeast 254 292 3,000 -111 Descending Miami Center
Tue 07:03:01 AM 26.3281 -80.3525 63° Northeast 255 293 3,000 -295 Level Miami Center
Tue 07:03:38 AM 26.3475 -80.3142 60° Northeast 253 291 2,700 -806 Descending Miami Center
Tue 07:04:08 AM 26.3519 -80.2731 83° East 244 281 2,100 -689 Descending Miami Center
Tue 07:04:39 AM 26.3561 -80.2397 82° East 242 278 2,000 -90 Descending Miami Center
Tue 07:05:15 AM 26.3542 -80.2058 94° East 169 194 2,000  Level Miami Center
Tue 07:05:39 AM 26.3428 -80.1875 125° Southeast 185 213 2,000 143 Level Miami Center
Tue 07:05:57 AM 26.3286 -80.1758 144° Southeast 178 205 2,100 -393 Climbing Miami Center
Tue 07:06:40 AM 26.3033 -80.1558 145° Southeast 163 188 1,600 -787 Descending Miami Center
Tue 07:06:58 AM 26.2947 -80.1500 149° Southeast 142 163 1,300 -885 Descending Miami Center
Tue 07:07:41 AM 26.2756 -80.1339 143° Southeast 128 147 700 -787 Descending Miami Center
Tue 07:07:59 AM 26.2689 -80.1294 149° Southeast 104 120 500 -590 Descending Miami Center
Tue 07:08:42 AM 26.2558 -80.1172 140° Southeast 102 117 100 -558 Descending Miami Center
Tue 07:10:00 AM 26.2474 -80.1112 156° South  Level Estimated

Login

Don't have an account? Register now (free) for customized features, flight alerts, and more!